createdAt,value
2017-09-09T00:01:16.890Z,12.10
2017-09-09T00:03:43.639Z,12.14
2017-09-09T00:06:10.101Z,12.12
2017-09-09T00:08:36.962Z,12.09
2017-09-09T00:11:03.372Z,11.90
2017-09-09T00:13:30.474Z,11.80
2017-09-09T00:15:56.811Z,11.60
2017-09-09T00:18:23.621Z,11.45
2017-09-09T00:20:50.090Z,11.33
2017-09-09T00:23:16.444Z,11.31
2017-09-09T00:25:45.038Z,11.18
2017-09-09T00:28:11.425Z,11.12
2017-09-09T00:30:38.868Z,11.09
2017-09-09T00:33:05.288Z,11.11
2017-09-09T00:35:32.238Z,11.03
2017-09-09T00:37:58.955Z,10.96
2017-09-09T00:40:25.358Z,10.90
2017-09-09T00:42:51.823Z,10.87
2017-09-09T00:45:18.194Z,10.84
2017-09-09T00:47:44.651Z,10.81
2017-09-09T00:50:11.134Z,10.80
2017-09-09T00:52:37.659Z,10.81
2017-09-09T00:55:04.066Z,10.80
2017-09-09T00:57:30.940Z,10.82
2017-09-09T00:59:58.142Z,10.83
2017-09-09T01:02:24.499Z,10.81
2017-09-09T01:04:50.982Z,10.79
2017-09-09T01:07:17.419Z,10.79
2017-09-09T01:09:43.794Z,10.81
2017-09-09T01:12:10.254Z,10.88
2017-09-09T01:14:36.731Z,10.84
2017-09-09T01:17:03.171Z,10.80
2017-09-09T01:19:29.642Z,10.78
2017-09-09T01:21:56.050Z,10.77
2017-09-09T01:24:22.487Z,10.69
2017-09-09T01:26:48.918Z,10.57
2017-09-09T01:29:16.177Z,10.46
2017-09-09T01:31:42.559Z,10.38
2017-09-09T01:34:08.909Z,10.35
2017-09-09T01:36:35.310Z,10.35
2017-09-09T01:39:01.707Z,10.27
2017-09-09T01:41:28.144Z,10.24
2017-09-09T01:43:59.728Z,10.22
2017-09-09T01:46:26.110Z,10.19
2017-09-09T01:48:52.643Z,10.17
2017-09-09T01:51:19.001Z,10.20
2017-09-09T01:53:45.471Z,10.21
2017-09-09T01:56:12.080Z,10.24
2017-09-09T01:58:38.507Z,10.27
2017-09-09T02:01:04.911Z,10.32
2017-09-09T02:03:31.294Z,10.37
2017-09-09T02:05:57.642Z,10.36
2017-09-09T02:08:23.974Z,10.32
2017-09-09T02:10:50.293Z,10.32
2017-09-09T02:13:16.798Z,10.30
2017-09-09T02:15:43.188Z,10.31
2017-09-09T02:18:09.535Z,10.31
2017-09-09T02:20:36.262Z,10.36
2017-09-09T02:23:02.643Z,10.38
2017-09-09T02:25:34.159Z,10.36
2017-09-09T02:28:00.528Z,10.34
2017-09-09T02:30:26.904Z,10.30
2017-09-09T02:32:53.320Z,10.22
2017-09-09T02:35:19.733Z,10.14
2017-09-09T02:37:46.160Z,10.09
2017-09-09T02:40:12.634Z,10.05
2017-09-09T02:42:39.027Z,10.05
2017-09-09T02:45:05.475Z,10.05
2017-09-09T02:47:31.923Z,10.05
2017-09-09T02:49:58.360Z,10.04
2017-09-09T02:52:24.849Z,9.94
2017-09-09T02:54:51.215Z,9.89
2017-09-09T02:57:17.562Z,9.85
2017-09-09T02:59:44.045Z,9.81
2017-09-09T03:02:10.508Z,9.69
2017-09-09T03:04:36.911Z,9.61
2017-09-09T03:07:04.224Z,9.58
2017-09-09T03:09:30.543Z,9.59
2017-09-09T03:11:57.575Z,9.65
2017-09-09T03:14:23.974Z,9.71
2017-09-09T03:16:50.409Z,9.77
2017-09-09T03:19:16.783Z,9.83
2017-09-09T03:21:43.183Z,9.86
2017-09-09T03:24:09.673Z,9.92
2017-09-09T03:26:36.076Z,10.01
2017-09-09T03:29:02.495Z,10.09
2017-09-09T03:31:28.942Z,10.17
2017-09-09T03:33:55.395Z,10.18
2017-09-09T03:36:22.838Z,10.20
2017-09-09T03:38:49.251Z,10.19
2017-09-09T03:41:15.720Z,10.18
2017-09-09T03:43:42.222Z,10.07
2017-09-09T03:46:08.615Z,10.07
2017-09-09T03:48:35.003Z,10.00
2017-09-09T03:51:01.424Z,9.87
2017-09-09T03:53:27.825Z,9.76
2017-09-09T03:55:54.135Z,9.71
2017-09-09T03:58:20.478Z,9.69
2017-09-09T04:00:46.806Z,9.68
2017-09-09T04:03:13.210Z,9.68
2017-09-09T04:05:39.582Z,9.69
2017-09-09T04:08:05.928Z,9.70
2017-09-09T04:10:32.270Z,9.74
2017-09-09T04:12:58.736Z,9.83
2017-09-09T04:15:25.170Z,9.86
2017-09-09T04:17:51.590Z,9.82
2017-09-09T04:20:17.907Z,9.78
2017-09-09T04:22:44.270Z,9.72
2017-09-09T04:25:10.697Z,9.71
2017-09-09T04:27:37.129Z,9.66
2017-09-09T04:30:03.494Z,9.62
2017-09-09T04:32:29.915Z,9.62
2017-09-09T04:34:56.348Z,9.63
2017-09-09T04:37:22.678Z,9.63
2017-09-09T04:39:49.455Z,9.65
2017-09-09T04:42:15.912Z,9.73
2017-09-09T04:44:42.451Z,9.88
2017-09-09T04:47:08.878Z,9.97
2017-09-09T04:49:35.190Z,9.98
2017-09-09T04:52:01.823Z,9.96
2017-09-09T04:54:28.171Z,9.95
2017-09-09T04:56:54.604Z,9.93
2017-09-09T04:59:20.962Z,9.94
2017-09-09T05:01:47.283Z,9.96
2017-09-09T05:04:13.772Z,9.98
2017-09-09T05:06:40.250Z,10.00
2017-09-09T05:09:06.644Z,10.06
2017-09-09T05:11:33.062Z,10.11
2017-09-09T05:13:59.535Z,10.16
2017-09-09T05:16:25.931Z,10.24
2017-09-09T05:18:52.550Z,10.32
2017-09-09T05:21:18.966Z,10.41
2017-09-09T05:23:45.379Z,10.54
2017-09-09T05:26:11.809Z,10.65
2017-09-09T05:28:38.242Z,10.72
2017-09-09T05:31:05.774Z,10.78
2017-09-09T05:33:32.184Z,10.82
2017-09-09T05:35:58.719Z,10.90
2017-09-09T05:38:25.170Z,10.97
2017-09-09T05:40:51.534Z,11.03
2017-09-09T05:43:17.926Z,11.07
2017-09-09T05:45:44.278Z,11.13
2017-09-09T05:48:10.756Z,11.21
2017-09-09T05:50:37.260Z,11.31
2017-09-09T05:53:04.230Z,11.41
2017-09-09T05:55:30.851Z,11.49
2017-09-09T05:57:57.461Z,11.63
2017-09-09T06:00:24.066Z,11.78
2017-09-09T06:02:50.970Z,12.01
2017-09-09T06:05:17.470Z,12.21
2017-09-09T06:07:43.902Z,12.37
2017-09-09T06:10:10.264Z,12.57
2017-09-09T06:12:36.684Z,12.78
2017-09-09T06:15:03.082Z,12.82
2017-09-09T06:17:29.478Z,12.93
2017-09-09T06:19:56.440Z,13.01
2017-09-09T06:22:22.909Z,13.26
2017-09-09T06:24:49.323Z,13.54
2017-09-09T06:27:15.753Z,13.85
2017-09-09T06:29:42.523Z,14.17
2017-09-09T06:32:08.947Z,14.39
2017-09-09T06:34:35.410Z,14.48
2017-09-09T06:37:02.412Z,14.44
2017-09-09T06:39:28.845Z,14.42
2017-09-09T06:41:55.280Z,14.44
2017-09-09T06:44:21.819Z,14.47
2017-09-09T06:46:48.274Z,14.57
2017-09-09T06:49:14.706Z,14.52
2017-09-09T06:51:41.182Z,14.60
2017-09-09T06:54:07.579Z,14.68
2017-09-09T06:56:34.207Z,14.76
2017-09-09T06:59:01.212Z,14.83
2017-09-09T07:01:27.889Z,14.88
2017-09-09T07:03:54.551Z,15.03
2017-09-09T07:06:21.086Z,15.19
2017-09-09T07:08:47.909Z,15.34
2017-09-09T07:11:14.268Z,15.43
2017-09-09T07:13:40.867Z,15.65
2017-09-09T07:16:07.338Z,15.82
2017-09-09T07:18:33.961Z,15.98
2017-09-09T07:21:00.703Z,16.26
2017-09-09T07:23:27.507Z,16.53
2017-09-09T07:25:55.895Z,16.68
2017-09-09T07:28:22.723Z,16.96
2017-09-09T07:30:49.187Z,17.11
2017-09-09T07:33:15.658Z,17.23
2017-09-09T07:35:42.126Z,17.27
2017-09-09T07:38:08.492Z,17.26
2017-09-09T07:40:35.265Z,17.33
2017-09-09T07:43:02.382Z,17.36
2017-09-09T07:45:30.869Z,17.32
2017-09-09T07:47:57.922Z,17.57
2017-09-09T07:50:25.146Z,17.68
2017-09-09T07:52:53.084Z,17.75
2017-09-09T07:55:20.284Z,17.82
2017-09-09T07:57:46.631Z,17.97
2017-09-09T08:00:12.986Z,18.06
2017-09-09T08:02:40.749Z,18.22
2017-09-09T08:05:07.136Z,18.43
2017-09-09T08:07:33.540Z,18.38
2017-09-09T08:10:00.574Z,18.52
2017-09-09T08:12:27.039Z,18.58
2017-09-09T08:14:53.982Z,18.94
2017-09-09T08:17:20.608Z,19.15
2017-09-09T08:19:47.476Z,19.18
2017-09-09T08:22:14.582Z,19.29
2017-09-09T08:24:46.673Z,19.44
2017-09-09T08:27:18.208Z,19.57
2017-09-09T08:29:48.714Z,19.52
2017-09-09T08:32:15.562Z,19.42
2017-09-09T08:34:48.115Z,19.34
2017-09-09T08:37:20.445Z,19.15
2017-09-09T08:39:53.356Z,19.15
2017-09-09T08:42:20.034Z,19.17
2017-09-09T08:44:53.921Z,19.44
2017-09-09T08:47:24.231Z,19.42
2017-09-09T08:49:51.110Z,19.38
2017-09-09T08:52:20.671Z,19.35
2017-09-09T08:54:51.402Z,19.28
2017-09-09T08:57:24.298Z,19.09
2017-09-09T08:59:56.470Z,19.03
2017-09-09T09:02:29.349Z,18.93
2017-09-09T09:05:00.633Z,18.93
2017-09-09T09:07:31.893Z,18.73
2017-09-09T09:10:05.071Z,18.72
2017-09-09T09:12:32.324Z,18.73
2017-09-09T09:15:04.334Z,18.92
2017-09-09T09:17:36.496Z,19.15
2017-09-09T09:20:08.803Z,19.36
2017-09-09T09:22:41.767Z,19.69
2017-09-09T09:25:13.682Z,19.91
2017-09-09T09:27:46.012Z,19.92
2017-09-09T09:30:12.618Z,20.21
2017-09-09T09:32:39.097Z,20.16
2017-09-09T09:35:05.491Z,20.01
2017-09-09T09:37:31.922Z,20.00
2017-09-09T09:39:58.275Z,20.06
2017-09-09T09:42:24.778Z,20.00
2017-09-09T09:44:51.270Z,20.14
2017-09-09T09:47:17.690Z,20.24
2017-09-09T09:49:44.124Z,20.38
2017-09-09T09:52:10.502Z,20.61
2017-09-09T09:54:36.916Z,20.29
2017-09-09T09:57:03.263Z,19.99
2017-09-09T09:59:36.622Z,19.87
2017-09-09T10:02:07.768Z,20.16
2017-09-09T10:04:34.743Z,20.99
2017-09-09T10:07:03.398Z,21.83
2017-09-09T10:09:34.464Z,22.22
2017-09-09T10:12:09.225Z,22.34
2017-09-09T10:14:43.354Z,21.81
2017-09-09T10:17:16.765Z,21.35
2017-09-09T10:19:48.825Z,21.88
2017-09-09T10:22:20.352Z,22.53
2017-09-09T10:24:53.326Z,23.28
2017-09-09T10:27:25.696Z,23.45
2017-09-09T10:29:57.435Z,23.31
2017-09-09T10:32:29.745Z,22.41
2017-09-09T10:35:02.591Z,22.51
2017-09-09T10:37:35.958Z,21.92
2017-09-09T10:40:04.773Z,21.25
2017-09-09T10:42:33.604Z,20.94
2017-09-09T10:45:05.077Z,20.79
2017-09-09T10:47:31.876Z,20.59
2017-09-09T10:49:58.239Z,20.14
2017-09-09T10:52:24.683Z,20.03
2017-09-09T10:54:54.134Z,19.69
2017-09-09T10:57:20.643Z,19.38
2017-09-09T10:59:47.864Z,19.07
2017-09-09T11:02:14.284Z,18.94
2017-09-09T11:04:45.493Z,18.76
2017-09-09T11:07:16.125Z,18.54
2017-09-09T11:09:44.996Z,18.27
2017-09-09T11:12:13.581Z,17.99
2017-09-09T11:14:40.830Z,17.84
2017-09-09T11:17:10.695Z,17.76
2017-09-09T11:19:37.798Z,17.76
2017-09-09T11:22:10.682Z,17.81
2017-09-09T11:24:41.790Z,17.74
2017-09-09T11:27:12.998Z,17.55
2017-09-09T11:29:46.459Z,17.18
2017-09-09T11:32:16.401Z,16.93
2017-09-09T11:34:48.537Z,16.78
2017-09-09T11:37:20.454Z,16.65
2017-09-09T11:39:49.070Z,16.62
2017-09-09T11:42:22.032Z,16.56
2017-09-09T11:44:54.348Z,16.50
2017-09-09T11:47:21.320Z,16.40
2017-09-09T11:49:49.106Z,16.45
2017-09-09T11:52:20.334Z,16.35
2017-09-09T11:54:51.969Z,16.29
2017-09-09T11:57:23.972Z,16.21
2017-09-09T11:59:55.555Z,16.19
2017-09-09T12:02:28.016Z,16.22
2017-09-09T12:04:56.175Z,16.13
2017-09-09T12:07:24.758Z,16.24
2017-09-09T12:09:56.613Z,16.27
2017-09-09T12:12:29.792Z,16.29
2017-09-09T12:15:03.006Z,16.28
2017-09-09T12:17:29.690Z,16.24
2017-09-09T12:19:56.570Z,16.16
2017-09-09T12:22:23.733Z,16.04
2017-09-09T12:24:50.098Z,15.96
2017-09-09T12:27:16.450Z,15.96
2017-09-09T12:29:47.776Z,15.87
2017-09-09T12:32:33.950Z,15.82
2017-09-09T12:35:01.615Z,15.79
2017-09-09T12:37:30.474Z,15.79
2017-09-09T12:39:59.309Z,15.64
2017-09-09T12:42:32.372Z,15.52
2017-09-09T12:45:05.252Z,15.46
2017-09-09T12:47:37.594Z,15.27
2017-09-09T12:50:09.663Z,15.07
2017-09-09T12:52:44.067Z,14.95
2017-09-09T12:55:15.899Z,14.82
2017-09-09T12:57:49.216Z,14.76
2017-09-09T13:00:19.835Z,14.68
2017-09-09T13:02:51.545Z,14.66
2017-09-09T13:05:23.893Z,14.65
2017-09-09T13:07:56.001Z,14.69
2017-09-09T13:10:27.760Z,14.75
2017-09-09T13:12:55.903Z,14.74
2017-09-09T13:15:27.839Z,14.66
2017-09-09T13:17:54.535Z,14.64
2017-09-09T13:20:20.984Z,14.74
2017-09-09T13:22:47.418Z,14.72
2017-09-09T13:25:17.491Z,14.73
2017-09-09T13:27:47.939Z,14.68
2017-09-09T13:30:20.538Z,14.64
2017-09-09T13:32:53.686Z,14.66
2017-09-09T13:35:26.402Z,14.67
2017-09-09T13:37:56.796Z,14.67
2017-09-09T13:40:28.734Z,14.64
2017-09-09T13:42:56.058Z,14.57
2017-09-09T13:45:22.804Z,14.60
2017-09-09T13:47:55.443Z,14.57
2017-09-09T13:50:24.380Z,14.53
2017-09-09T13:52:56.511Z,14.49
2017-09-09T13:55:28.123Z,14.54
2017-09-09T13:57:56.976Z,14.54
2017-09-09T14:00:28.491Z,14.51
2017-09-09T14:03:01.073Z,14.51
2017-09-09T14:05:32.550Z,14.48
2017-09-09T14:08:04.689Z,14.42
2017-09-09T14:10:37.350Z,14.37
2017-09-09T14:13:13.613Z,14.33
2017-09-09T14:15:42.502Z,14.25
2017-09-09T14:18:14.994Z,14.15
2017-09-09T14:20:45.755Z,14.09
2017-09-09T14:23:18.736Z,14.09
2017-09-09T14:25:51.409Z,13.91
2017-09-09T14:28:22.533Z,13.89
2017-09-09T14:30:55.280Z,13.90
2017-09-09T14:33:29.190Z,13.86
2017-09-09T14:36:02.591Z,13.96
2017-09-09T14:38:29.106Z,14.00
2017-09-09T14:40:56.224Z,13.89
2017-09-09T14:43:30.006Z,13.87
2017-09-09T14:46:02.121Z,13.82
2017-09-09T14:48:33.906Z,13.81
2017-09-09T14:51:05.239Z,13.87
2017-09-09T14:53:33.173Z,13.85
2017-09-09T14:56:03.472Z,13.85
2017-09-09T14:58:36.148Z,13.88
2017-09-09T15:01:04.358Z,13.84
2017-09-09T15:03:30.726Z,13.87
2017-09-09T15:06:03.252Z,13.83
2017-09-09T15:08:37.137Z,13.78
2017-09-09T15:11:04.346Z,13.83
2017-09-09T15:13:32.316Z,13.86
2017-09-09T15:15:59.674Z,13.84
2017-09-09T15:18:27.104Z,13.80
2017-09-09T15:20:59.665Z,13.82
2017-09-09T15:23:31.269Z,13.81
2017-09-09T15:26:04.224Z,13.81
2017-09-09T15:28:35.668Z,13.82
2017-09-09T15:31:07.008Z,13.86
2017-09-09T15:33:37.888Z,13.79
2017-09-09T15:36:10.345Z,13.75
2017-09-09T15:38:42.604Z,13.75
2017-09-09T15:41:14.287Z,13.75
2017-09-09T15:43:46.272Z,13.74
2017-09-09T15:46:17.361Z,13.72
2017-09-09T15:48:48.864Z,13.67
2017-09-09T15:51:21.475Z,13.65
2017-09-09T15:53:53.213Z,13.64
2017-09-09T15:56:24.529Z,13.63
2017-09-09T15:58:56.013Z,13.63
2017-09-09T16:01:30.850Z,13.62
2017-09-09T16:04:03.621Z,13.66
2017-09-09T16:06:30.377Z,13.66
2017-09-09T16:08:56.614Z,13.67
2017-09-09T16:11:22.891Z,13.71
2017-09-09T16:13:49.940Z,13.70
2017-09-09T16:16:16.243Z,13.68
2017-09-09T16:18:42.938Z,13.69
2017-09-09T16:21:09.978Z,13.65
2017-09-09T16:23:36.959Z,13.67
2017-09-09T16:26:03.313Z,13.65
2017-09-09T16:28:29.558Z,13.64
2017-09-09T16:30:55.778Z,13.66
2017-09-09T16:46:29.010Z,13.58
2017-09-09T16:48:55.401Z,13.59
2017-09-09T16:51:21.625Z,13.60
2017-09-09T16:53:47.966Z,13.62
2017-09-09T16:56:15.581Z,13.59
2017-09-09T16:58:42.006Z,13.56
2017-09-09T17:01:08.363Z,13.55
2017-09-09T17:03:34.658Z,13.52
2017-09-09T17:06:01.187Z,13.52
2017-09-09T17:08:28.221Z,13.53
2017-09-09T17:10:54.443Z,13.51
2017-09-09T17:13:20.706Z,13.50
2017-09-09T17:15:46.977Z,13.52
2017-09-09T17:18:13.333Z,13.53
2017-09-09T17:20:39.641Z,13.46
2017-09-09T17:23:05.958Z,13.45
2017-09-09T17:25:32.205Z,13.43
2017-09-09T17:28:01.945Z,13.42
2017-09-09T17:30:28.314Z,13.40
2017-09-09T17:32:54.530Z,13.37
2017-09-09T17:35:20.815Z,13.36
2017-09-09T17:37:47.066Z,13.35
2017-09-09T17:40:13.293Z,13.32
2017-09-09T17:42:39.505Z,13.24
2017-09-09T17:45:05.762Z,13.29
2017-09-09T17:47:31.954Z,13.29
2017-09-09T17:49:58.366Z,13.24
2017-09-09T17:52:24.630Z,13.23
2017-09-09T17:54:50.889Z,13.22
2017-09-09T17:57:17.147Z,13.24
2017-09-09T17:59:43.505Z,13.22
2017-09-09T18:02:09.808Z,13.21
2017-09-09T18:04:36.166Z,13.21
2017-09-09T18:07:02.363Z,13.24
2017-09-09T18:09:28.656Z,13.26
2017-09-09T18:11:55.675Z,13.23
2017-09-09T18:14:22.030Z,13.18
2017-09-09T18:16:48.415Z,13.18
2017-09-09T18:19:14.630Z,13.19
2017-09-09T18:21:41.638Z,13.16
2017-09-09T18:24:07.990Z,13.10
2017-09-09T18:26:35.151Z,13.08
2017-09-09T18:29:01.508Z,13.10
2017-09-09T18:31:44.107Z,13.09
2017-09-09T18:34:10.534Z,13.09
2017-09-09T18:36:37.513Z,13.06
2017-09-09T18:39:04.530Z,13.07
2017-09-09T18:41:30.917Z,13.10
2017-09-09T18:43:58.003Z,13.09
2017-09-09T18:46:25.054Z,13.06
2017-09-09T18:48:51.799Z,13.07
2017-09-09T18:51:18.126Z,13.04
2017-09-09T18:53:44.673Z,12.97
2017-09-09T18:56:10.905Z,12.99
2017-09-09T18:58:38.496Z,12.95
2017-09-09T19:01:07.194Z,12.96
2017-09-09T19:03:33.874Z,12.96
2017-09-09T19:06:00.989Z,12.97
2017-09-09T19:08:31.318Z,12.95
2017-09-09T19:11:01.758Z,12.87
2017-09-09T19:13:34.001Z,12.88
2017-09-09T19:16:04.711Z,12.88
2017-09-09T19:18:35.745Z,12.81
2017-09-09T19:21:05.661Z,12.80
2017-09-09T19:23:38.326Z,12.70
2017-09-09T19:26:09.671Z,12.67
2017-09-09T19:28:41.360Z,12.67
2017-09-09T19:31:14.298Z,12.70
2017-09-09T19:33:44.426Z,12.71
2017-09-09T19:36:11.351Z,12.78
2017-09-09T19:38:37.727Z,12.78
2017-09-09T19:41:08.841Z,12.71
2017-09-09T19:43:40.882Z,12.74
2017-09-09T19:46:12.661Z,12.60
2017-09-09T19:48:44.420Z,12.64
2017-09-09T19:51:14.836Z,12.62
2017-09-09T19:53:44.460Z,12.60
2017-09-09T19:56:12.138Z,12.53
2017-09-09T19:58:38.405Z,12.54
2017-09-09T20:01:10.216Z,12.52
2017-09-09T20:03:44.955Z,12.48
2017-09-09T20:06:15.992Z,12.42
2017-09-09T20:08:46.702Z,12.43
2017-09-09T20:11:18.345Z,12.38
2017-09-09T20:13:45.342Z,12.35
2017-09-09T20:16:13.134Z,12.35
2017-09-09T20:18:44.412Z,12.32
2017-09-09T20:21:14.903Z,12.28
2017-09-09T20:23:53.648Z,12.32
2017-09-09T20:26:25.424Z,12.33
2017-09-09T20:28:53.072Z,12.26
2017-09-09T20:31:24.102Z,12.24
2017-09-09T20:33:50.761Z,12.19
2017-09-09T20:36:20.662Z,12.16
2017-09-09T20:38:51.873Z,12.21
2017-09-09T20:41:21.763Z,12.17
2017-09-09T20:43:51.373Z,12.12
2017-09-09T20:46:17.621Z,12.13
2017-09-09T20:48:50.905Z,12.14
2017-09-09T20:51:22.819Z,12.12
2017-09-09T20:53:55.251Z,12.15
2017-09-09T20:56:24.145Z,12.16
2017-09-09T20:58:50.678Z,12.13
2017-09-09T21:01:19.283Z,12.11
2017-09-09T21:03:49.893Z,12.09
2017-09-09T21:06:21.203Z,12.13
2017-09-09T21:08:51.970Z,12.13
2017-09-09T21:11:23.631Z,12.13
2017-09-09T21:13:51.621Z,12.10
2017-09-09T21:16:18.334Z,12.08
2017-09-09T21:18:48.962Z,12.08
2017-09-09T21:21:18.588Z,12.08
2017-09-09T21:23:48.447Z,12.11
2017-09-09T21:26:18.192Z,12.14
2017-09-09T21:28:44.660Z,12.11
2017-09-09T21:31:11.029Z,12.12
2017-09-09T21:33:38.023Z,12.11
2017-09-09T21:36:04.817Z,12.11
2017-09-09T21:38:31.105Z,12.04
2017-09-09T21:40:57.321Z,12.02
2017-09-09T21:43:23.594Z,11.92
2017-09-09T21:45:49.877Z,11.87
2017-09-09T21:48:16.110Z,11.89
2017-09-09T21:50:42.313Z,11.85
2017-09-09T21:53:08.493Z,11.85
2017-09-09T21:55:34.745Z,11.78
2017-09-09T21:58:00.968Z,11.81
2017-09-09T22:00:27.165Z,11.74
2017-09-09T22:02:54.164Z,11.78
2017-09-09T22:05:26.000Z,11.76
2017-09-09T22:07:52.867Z,11.71
2017-09-09T22:10:19.049Z,11.74
2017-09-09T22:12:46.025Z,11.77
2017-09-09T22:15:12.371Z,11.73
2017-09-09T22:17:38.624Z,11.73
2017-09-09T22:20:04.849Z,11.69
2017-09-09T22:22:31.066Z,11.68
2017-09-09T22:24:57.345Z,11.62
2017-09-09T22:27:23.610Z,11.58
2017-09-09T22:29:50.645Z,11.56
2017-09-09T22:32:17.861Z,11.58
2017-09-09T22:34:44.134Z,11.57
2017-09-09T22:37:10.761Z,11.62
2017-09-09T22:39:37.815Z,11.59
2017-09-09T22:42:04.041Z,11.59
2017-09-09T22:44:30.290Z,11.57
2017-09-09T22:46:56.607Z,11.59
2017-09-09T22:49:22.825Z,11.56
2017-09-09T22:51:49.298Z,11.53
2017-09-09T22:54:15.524Z,11.51
2017-09-09T22:56:41.761Z,11.49
2017-09-09T22:59:08.008Z,11.50
2017-09-09T23:01:34.228Z,11.51
2017-09-09T23:04:00.424Z,11.51
2017-09-09T23:06:26.677Z,11.57
2017-09-09T23:08:53.045Z,11.56
2017-09-09T23:11:19.257Z,11.56
2017-09-09T23:13:45.507Z,11.56
2017-09-09T23:16:11.958Z,11.57
2017-09-09T23:18:38.290Z,11.58
2017-09-09T23:21:05.517Z,11.55
2017-09-09T23:23:31.723Z,11.57
2017-09-09T23:25:57.978Z,11.60
2017-09-09T23:28:24.220Z,11.58
2017-09-09T23:30:50.574Z,11.59
2017-09-09T23:33:16.810Z,11.56
2017-09-09T23:35:43.041Z,11.53
2017-09-09T23:38:09.300Z,11.52
2017-09-09T23:40:35.602Z,11.56
2017-09-09T23:43:01.864Z,11.49
2017-09-09T23:45:28.073Z,11.47
2017-09-09T23:47:54.308Z,11.49
2017-09-09T23:50:20.505Z,11.50
2017-09-09T23:52:46.702Z,11.49
2017-09-09T23:55:12.971Z,11.48
2017-09-09T23:57:39.255Z,11.49
